Time;durP1;ratioP1;P1;durP2;ratioP2;P2;SDS_P1;SDS_P2;PMS_P1;PMS_P2;Temp;Humidity;BMP_temperature;BMP_pressure;BME280_temperature;BME280_humidity;BME280_pressure;Samples;Min_cycle;Max_cycle;Signal;HPM_P1;HPM_P2
2023/01/02 00:00:58;;;;;;;23.30;21.80;;;13.80;99.90;;;;;;4960061;28;20036;-92
2023/01/02 00:03:24;;;;;;;22.42;21.15;;;13.80;99.90;;;;;;4960505;29;20027;-91
2023/01/02 00:05:50;;;;;;;23.85;22.30;;;13.90;99.90;;;;;;4962113;29;20038;-92
2023/01/02 00:08:16;;;;;;;22.52;21.02;;;13.80;99.90;;;;;;4961062;29;20050;-93
2023/01/02 00:10:43;;;;;;;22.98;21.38;;;13.80;99.90;;;;;;4962337;29;20031;-93
2023/01/02 00:13:09;;;;;;;23.63;22.33;;;13.80;99.90;;;;;;4948571;29;20032;-93
2023/01/02 00:15:35;;;;;;;23.48;21.85;;;13.80;99.90;;;;;;4948780;28;20503;-93
2023/01/02 00:18:01;;;;;;;24.08;22.38;;;13.90;99.90;;;;;;4967906;29;20039;-94
2023/01/02 00:20:27;;;;;;;23.50;22.00;;;13.90;99.90;;;;;;4963419;28;20486;-93
2023/01/02 00:22:53;;;;;;;23.02;21.63;;;13.90;99.90;;;;;;4961359;29;20038;-92
2023/01/02 00:25:19;;;;;;;21.80;20.45;;;13.80;99.90;;;;;;4943249;29;20039;-93
2023/01/02 00:27:45;;;;;;;22.95;21.73;;;13.80;99.90;;;;;;4959660;29;20035;-94
2023/01/02 00:30:12;;;;;;;22.60;21.08;;;13.80;99.90;;;;;;4923227;28;20046;-92
2023/01/02 00:32:38;;;;;;;20.67;19.58;;;13.80;99.90;;;;;;4940194;29;20047;-93
2023/01/02 00:35:04;;;;;;;22.27;20.88;;;13.80;99.90;;;;;;4939984;29;20062;-92
2023/01/02 00:37:30;;;;;;;24.17;22.50;;;13.80;99.90;;;;;;4939569;29;20077;-92
2023/01/02 00:39:56;;;;;;;22.52;21.02;;;13.80;99.90;;;;;;4957110;29;20465;-94
2023/01/02 00:42:23;;;;;;;22.98;21.77;;;13.80;99.90;;;;;;4956976;29;20038;-93
2023/01/02 00:44:49;;;;;;;22.88;21.30;;;13.80;99.90;;;;;;4939273;29;20389;-93
2023/01/02 00:47:15;;;;;;;23.75;22.27;;;13.70;99.90;;;;;;4956137;28;20028;-94
2023/01/02 00:49:41;;;;;;;23.77;22.48;;;13.80;99.90;;;;;;4956823;29;20039;-92
2023/01/02 00:52:07;;;;;;;24.75;23.25;;;13.80;99.90;;;;;;4940063;29;20492;-93
2023/01/02 00:54:33;;;;;;;24.85;23.23;;;13.80;99.90;;;;;;4924169;29;20031;-92
2023/01/02 00:56:59;;;;;;;22.88;21.48;;;13.80;99.90;;;;;;4939981;29;20405;-93
2023/01/02 00:59:25;;;;;;;24.20;22.90;;;13.70;99.90;;;;;;4923880;29;20047;-94
2023/01/02 01:01:51;;;;;;;23.75;22.33;;;13.80;99.90;;;;;;4957683;28;20042;-92
2023/01/02 01:04:17;;;;;;;26.58;24.77;;;13.80;99.90;;;;;;4940989;29;20036;-92
2023/01/02 01:06:43;;;;;;;24.58;23.30;;;13.70;99.90;;;;;;4941495;29;20042;-94
2023/01/02 01:09:09;;;;;;;27.83;26.15;;;13.60;99.90;;;;;;4941472;29;20027;-94
2023/01/02 01:11:35;;;;;;;28.10;26.73;;;13.60;99.90;;;;;;4940963;29;20042;-92
2023/01/02 01:14:02;;;;;;;40.95;38.85;;;13.50;99.90;;;;;;4941343;29;20023;-92
2023/01/02 01:16:28;;;;;;;35.42;33.63;;;13.30;99.90;;;;;;4939310;28;20050;-92
2023/01/02 01:18:55;;;;;;;34.58;32.88;;;13.20;99.90;;;;;;4924850;29;20503;-93
2023/01/02 01:21:21;;;;;;;33.60;31.58;;;13.10;99.90;;;;;;4953771;29;20030;-93
2023/01/02 01:23:49;;;;;;;31.88;30.30;;;13.10;99.90;;;;;;4956974;29;20043;-93
2023/01/02 01:26:15;;;;;;;32.97;31.27;;;13.00;99.90;;;;;;4936746;29;20028;-94
2023/01/02 01:28:42;;;;;;;33.42;31.52;;;13.00;99.90;;;;;;4940107;29;20173;-92
2023/01/02 01:31:09;;;;;;;30.17;28.67;;;13.10;99.90;;;;;;4956132;28;20488;-91
2023/01/02 01:33:36;;;;;;;31.25;29.25;;;13.10;99.90;;;;;;4938814;29;20366;-93
2023/01/02 01:36:06;;;;;;;25.30;24.10;;;13.20;99.90;;;;;;4922923;29;20043;-93
2023/01/02 01:38:32;;;;;;;22.27;21.17;;;13.20;99.90;;;;;;4923822;29;20044;-93
2023/01/02 01:40:58;;;;;;;24.02;22.77;;;13.20;99.90;;;;;;4923516;29;20031;-93
2023/01/02 01:43:42;;;;;;;24.48;23.33;;;13.30;99.90;;;;;;4956159;29;20035;-92
2023/01/02 01:46:37;;;;;;;24.63;23.33;;;13.40;99.90;;;;;;4939209;29;20420;-92
2023/01/02 01:49:22;;;;;;;23.52;22.25;;;13.40;99.90;;;;;;4939795;29;20027;-92
2023/01/02 01:52:18;;;;;;;25.40;24.10;;;13.40;99.90;;;;;;4956301;29;20088;-92
2023/01/02 01:54:48;;;;;;;24.40;23.10;;;13.40;99.90;;;;;;4919518;29;20035;-92
2023/01/02 01:57:32;;;;;;;27.23;25.85;;;13.30;99.90;;;;;;4923537;29;20031;-92
2023/01/02 01:59:58;;;;;;;23.90;22.80;;;13.30;99.90;;;;;;4924139;29;20051;-93
2023/01/02 02:02:24;;;;;;;27.60;26.23;;;13.30;99.90;;;;;;4922659;29;20032;-92
2023/01/02 02:04:50;;;;;;;24.40;23.15;;;13.30;99.90;;;;;;4939936;29;20472;-94
2023/01/02 02:07:16;;;;;;;26.45;25.05;;;13.30;99.90;;;;;;4923595;29;20038;-92
2023/01/02 02:09:47;;;;;;;26.02;24.63;;;13.30;99.90;;;;;;4923478;29;20027;-92
2023/01/02 02:12:13;;;;;;;26.38;25.05;;;13.30;99.90;;;;;;4924056;29;20464;-93
2023/01/02 02:14:39;;;;;;;24.20;22.90;;;13.20;99.90;;;;;;4924833;29;20039;-93
2023/01/02 02:17:37;;;;;;;25.40;23.85;;;13.20;99.90;;;;;;4926582;29;20035;-93
2023/01/02 02:20:28;;;;;;;25.73;24.42;;;13.30;99.90;;;;;;4945356;29;20027;-92
2023/01/02 02:23:22;;;;;;;25.13;23.83;;;13.20;99.90;;;;;;4926097;29;20035;-92
2023/01/02 02:25:59;;;;;;;21.70;20.38;;;13.20;99.90;;;;;;4959534;29;20027;-93
2023/01/02 02:28:37;;;;;;;22.08;20.92;;;13.20;99.90;;;;;;4943339;29;20031;-92
2023/01/02 02:31:22;;;;;;;23.67;22.52;;;13.10;99.90;;;;;;4941947;28;20031;-93
2023/01/02 02:33:53;;;;;;;23.38;22.27;;;13.10;99.90;;;;;;4942165;29;20054;-92
2023/01/02 02:36:27;;;;;;;25.77;24.42;;;13.00;99.90;;;;;;4941772;29;20039;-93
2023/01/02 02:39:02;;;;;;;24.85;23.60;;;13.00;99.90;;;;;;4959247;29;20465;-93
2023/01/02 02:41:34;;;;;;;25.48;24.00;;;13.00;99.90;;;;;;4959213;29;20046;-93
2023/01/02 02:44:29;;;;;;;24.38;22.95;;;13.00;99.90;;;;;;4941471;29;20043;-92
2023/01/02 02:46:58;;;;;;;24.08;22.50;;;13.00;99.90;;;;;;4924767;29;20039;-93
2023/01/02 02:49:40;;;;;;;25.20;23.80;;;13.10;99.90;;;;;;4941465;29;20062;-92
2023/01/02 02:52:20;;;;;;;24.88;23.65;;;13.00;99.90;;;;;;4943061;29;20024;-93
2023/01/02 02:55:14;;;;;;;26.52;25.23;;;13.00;99.90;;;;;;4912199;29;20049;-93
2023/01/02 02:57:41;;;;;;;23.80;22.48;;;13.00;99.90;;;;;;4962474;28;20047;-93
2023/01/02 03:00:09;;;;;;;24.90;23.55;;;13.00;99.90;;;;;;4931251;28;20058;-91
2023/01/02 03:02:35;;;;;;;25.17;23.77;;;12.90;99.90;;;;;;4929726;29;20038;-92
2023/01/02 03:05:04;;;;;;;23.40;22.20;;;12.90;99.90;;;;;;4942634;29;20023;-92
2023/01/02 03:07:41;;;;;;;26.60;25.17;;;13.00;99.90;;;;;;4926378;29;20043;-94
2023/01/02 03:10:22;;;;;;;26.95;25.55;;;13.00;99.90;;;;;;4939745;29;20046;-92
2023/01/02 03:13:03;;;;;;;26.95;25.38;;;12.90;99.90;;;;;;4948217;29;20043;-92
2023/01/02 03:15:53;;;;;;;25.17;23.52;;;12.90;99.90;;;;;;4962793;28;20038;-93
2023/01/02 03:18:30;;;;;;;27.77;26.15;;;12.80;99.90;;;;;;4932349;29;20055;-93
2023/01/02 03:21:18;;;;;;;25.55;24.05;;;12.80;99.90;;;;;;4956926;29;20047;-93
2023/01/02 03:23:45;;;;;;;22.15;20.55;;;12.80;99.90;;;;;;4963159;29;20039;-93
2023/01/02 03:26:12;;;;;;;24.17;22.73;;;12.80;99.90;;;;;;4915379;29;20032;-93
2023/01/02 03:28:39;;;;;;;24.27;22.95;;;12.80;99.90;;;;;;4942311;29;20051;-93
2023/01/02 03:31:05;;;;;;;25.95;24.27;;;12.80;99.90;;;;;;4940616;28;20046;-91
2023/01/02 03:33:33;;;;;;;26.00;24.38;;;12.80;99.90;;;;;;4941175;29;20027;-92
2023/01/02 03:36:00;;;;;;;27.08;25.33;;;12.80;99.90;;;;;;4921174;29;20043;-93
2023/01/02 03:38:51;;;;;;;24.00;22.70;;;12.80;99.90;;;;;;4953740;29;20039;-93
2023/01/02 03:41:20;;;;;;;25.58;23.73;;;12.80;99.90;;;;;;4912372;29;20055;-93
2023/01/02 03:43:47;;;;;;;22.60;21.23;;;12.80;99.90;;;;;;4925728;29;20031;-93
2023/01/02 03:46:23;;;;;;;24.67;23.10;;;12.80;99.90;;;;;;4925363;29;20039;-93
2023/01/02 03:48:52;;;;;;;25.88;24.38;;;12.80;99.90;;;;;;4926629;29;20027;-91
2023/01/02 03:51:18;;;;;;;23.13;21.73;;;12.70;99.90;;;;;;4941492;29;20042;-90
2023/01/02 03:53:44;;;;;;;22.80;21.40;;;12.70;99.90;;;;;;4958533;29;20027;-92
2023/01/02 03:56:36;;;;;;;22.45;21.25;;;12.70;99.90;;;;;;4925338;29;20059;-92
2023/01/02 03:59:05;;;;;;;20.88;19.55;;;12.70;99.90;;;;;;4925872;29;20043;-95
2023/01/02 04:01:44;;;;;;;23.88;22.42;;;12.70;99.90;;;;;;4957844;28;20038;-92
2023/01/02 04:04:53;;;;;;;21.83;20.40;;;12.70;99.90;;;;;;4940988;29;20035;-94
2023/01/02 04:07:28;;;;;;;20.20;18.92;;;12.70;99.90;;;;;;4922948;29;20031;-92
2023/01/02 04:09:54;;;;;;;21.90;20.65;;;12.70;99.90;;;;;;4924562;29;20031;-92
2023/01/02 04:12:22;;;;;;;22.25;20.80;;;12.70;99.90;;;;;;4907680;29;20043;-91
2023/01/02 04:14:51;;;;;;;21.63;20.33;;;12.70;99.90;;;;;;4924953;29;20034;-92
2023/01/02 04:17:17;;;;;;;22.67;21.27;;;12.70;99.90;;;;;;4923751;28;20036;-92
2023/01/02 04:19:51;;;;;;;23.52;22.13;;;12.70;99.90;;;;;;4939767;28;20027;-92
2023/01/02 04:22:20;;;;;;;23.73;22.52;;;12.70;99.90;;;;;;4955851;29;20034;-91
2023/01/02 04:24:49;;;;;;;22.98;21.58;;;12.70;99.90;;;;;;4939577;29;20400;-93
2023/01/02 04:27:24;;;;;;;20.70;19.35;;;12.70;99.90;;;;;;4927722;29;20056;-92
2023/01/02 04:29:50;;;;;;;21.60;20.40;;;12.70;99.90;;;;;;4923959;29;20030;-92
2023/01/02 04:32:22;;;;;;;21.88;20.65;;;12.50;99.90;;;;;;4922641;29;20039;-91
2023/01/02 04:34:48;;;;;;;20.25;19.15;;;12.30;99.90;;;;;;4923937;29;20043;-91
2023/01/02 04:37:30;;;;;;;19.90;18.65;;;12.20;99.90;;;;;;4939255;28;20061;-92
2023/01/02 04:39:59;;;;;;;19.13;18.02;;;12.20;99.90;;;;;;4939503;29;20039;-91
2023/01/02 04:42:25;;;;;;;20.05;18.80;;;12.30;99.90;;;;;;4923646;29;20043;-93
2023/01/02 04:44:52;;;;;;;19.67;18.60;;;12.30;99.90;;;;;;4923785;29;20031;-93
2023/01/02 04:47:18;;;;;;;21.15;19.77;;;12.40;99.90;;;;;;4923283;29;20038;-91
2023/01/02 04:49:44;;;;;;;493.52;55.90;;;12.40;99.90;;;;;;4923728;29;20027;-92
2023/01/02 04:52:10;;;;;;;21.88;20.55;;;12.30;99.90;;;;;;4923549;29;20031;-91
2023/01/02 04:54:36;;;;;;;1094.22;173.55;;;12.30;99.90;;;;;;4939345;29;20484;-92
2023/01/02 04:57:02;;;;;;;425.08;37.70;;;12.30;99.90;;;;;;4922529;29;20040;-93
2023/01/02 04:59:28;;;;;;;29.75;18.90;;;12.40;99.90;;;;;;4938263;29;20043;-91
2023/01/02 05:01:54;;;;;;;440.33;43.83;;;12.40;99.90;;;;;;4955629;28;20420;-92
2023/01/02 05:04:20;;;;;;;759.83;57.92;;;12.50;99.90;;;;;;4956332;29;20043;-93
2023/01/02 05:06:46;;;;;;;20.35;18.95;;;12.40;99.90;;;;;;4923215;29;20031;-92
2023/01/02 05:09:14;;;;;;;205.10;26.33;;;12.40;99.90;;;;;;4938755;29;20039;-92
2023/01/02 05:11:40;;;;;;;45.10;19.95;;;12.40;99.90;;;;;;4939210;29;20020;-92
2023/01/02 05:14:07;;;;;;;43.65;20.95;;;12.40;99.90;;;;;;4923584;29;20031;-93
2023/01/02 05:16:33;;;;;;;19.95;18.73;;;12.50;99.90;;;;;;4938512;28;20042;-92
2023/01/02 05:18:59;;;;;;;21.23;19.70;;;12.50;99.90;;;;;;4922125;29;20074;-92
2023/01/02 05:24:09;;;;;;;21.83;20.45;;;12.50;99.90;;;;;;4959505;28;20038;-93
2023/01/02 05:26:35;;;;;;;21.50;20.40;;;12.60;99.90;;;;;;4947713;29;20380;-93
2023/01/02 05:29:02;;;;;;;25.95;22.00;;;12.60;99.90;;;;;;4938318;29;20043;-92
2023/01/02 05:31:28;;;;;;;173.77;24.52;;;12.60;99.90;;;;;;4922490;29;20046;-92
2023/01/02 05:33:55;;;;;;;574.35;39.97;;;12.70;99.90;;;;;;4922118;29;20056;-94
2023/01/02 05:36:21;;;;;;;20.75;19.52;;;12.60;99.90;;;;;;4922925;29;20488;-92
2023/01/02 05:38:48;;;;;;;20.60;19.38;;;12.60;99.90;;;;;;4938497;29;20186;-92
2023/01/02 05:41:14;;;;;;;22.15;21.05;;;12.60;99.90;;;;;;4938411;29;20027;-93
2023/01/02 05:43:40;;;;;;;22.98;21.63;;;12.70;99.90;;;;;;4922853;29;20036;-91
2023/01/02 05:46:14;;;;;;;39.67;22.17;;;12.60;99.90;;;;;;4922498;29;20495;-91
2023/01/02 05:48:41;;;;;;;21.65;20.25;;;12.60;99.90;;;;;;4922629;28;20038;-93
2023/01/02 05:51:09;;;;;;;22.45;21.13;;;12.60;99.90;;;;;;4922504;29;20023;-93
2023/01/02 05:53:36;;;;;;;434.17;35.47;;;12.60;99.90;;;;;;4938706;29;20389;-93
2023/01/02 05:56:13;;;;;;;22.67;21.20;;;12.60;99.90;;;;;;4922372;29;20042;-93
2023/01/02 05:58:41;;;;;;;21.13;19.75;;;12.60;99.90;;;;;;4922380;29;20054;-92
2023/01/02 06:01:27;;;;;;;24.13;22.35;;;12.60;99.90;;;;;;4922382;29;20043;-92
2023/01/02 06:03:55;;;;;;;20.95;19.67;;;12.50;99.90;;;;;;4922200;29;20039;-94
2023/01/02 06:06:23;;;;;;;35.55;19.77;;;12.50;99.90;;;;;;4922899;29;20026;-93
2023/01/02 06:08:50;;;;;;;53.38;21.85;;;12.50;99.90;;;;;;4922402;29;20027;-93
2023/01/02 06:11:16;;;;;;;21.85;20.63;;;12.50;99.90;;;;;;4922326;29;20047;-92
2023/01/02 06:13:42;;;;;;;21.77;20.58;;;12.50;99.90;;;;;;4938200;29;20123;-93
2023/01/02 06:16:09;;;;;;;23.33;22.13;;;12.50;99.90;;;;;;4921966;29;20031;-92
2023/01/02 06:18:35;;;;;;;23.63;22.42;;;12.60;99.90;;;;;;4938134;29;20050;-93
2023/01/02 06:21:04;;;;;;;21.08;19.70;;;12.60;99.90;;;;;;4948300;29;20027;-92
2023/01/02 06:23:30;;;;;;;23.35;21.42;;;12.60;99.90;;;;;;4953993;29;20516;-93
2023/01/02 06:26:04;;;;;;;22.77;21.40;;;12.60;99.90;;;;;;4936657;29;20034;-93
2023/01/02 06:28:30;;;;;;;24.38;23.10;;;12.60;99.90;;;;;;4938413;29;20031;-92
2023/01/02 06:31:03;;;;;;;99.68;24.02;;;12.50;99.90;;;;;;4940532;28;20027;-92
2023/01/02 06:33:29;;;;;;;22.60;21.15;;;12.50;99.90;;;;;;4938033;29;20472;-93
2023/01/02 06:35:57;;;;;;;21.20;19.75;;;12.60;99.90;;;;;;4922403;29;20027;-91
2023/01/02 06:38:23;;;;;;;21.52;20.25;;;12.60;99.90;;;;;;4938097;29;20080;-93
2023/01/02 06:40:56;;;;;;;21.58;20.27;;;12.50;99.90;;;;;;4922217;29;20028;-92
2023/01/02 06:43:22;;;;;;;21.88;20.52;;;12.50;99.90;;;;;;4922241;29;20043;-92
2023/01/02 06:45:49;;;;;;;20.75;19.65;;;12.40;99.90;;;;;;4922157;29;20039;-92
2023/01/02 06:48:15;;;;;;;92.35;21.52;;;12.40;99.90;;;;;;4905944;29;20035;-93
2023/01/02 06:50:42;;;;;;;21.17;19.83;;;12.30;99.90;;;;;;4954906;29;20034;-91
2023/01/02 06:53:09;;;;;;;21.20;20.00;;;12.30;99.90;;;;;;4937659;29;20051;-91
2023/01/02 06:55:35;;;;;;;22.13;20.80;;;12.30;99.90;;;;;;4938464;29;20031;-92
2023/01/02 06:58:01;;;;;;;21.25;19.90;;;12.20;99.90;;;;;;4922529;29;20040;-92
2023/01/02 07:00:27;;;;;;;19.52;18.42;;;12.20;99.90;;;;;;4907818;28;20054;-91
2023/01/02 07:02:53;;;;;;;20.52;19.35;;;12.20;99.90;;;;;;4944535;29;20036;-91
2023/01/02 07:05:20;;;;;;;20.42;19.42;;;12.10;99.90;;;;;;4946042;29;20039;-92
2023/01/02 07:07:46;;;;;;;21.42;19.92;;;12.10;99.90;;;;;;4962126;29;20050;-92
2023/01/02 07:10:12;;;;;;;21.70;20.48;;;12.00;99.90;;;;;;4964861;29;20035;-92
2023/01/02 07:12:38;;;;;;;21.27;20.10;;;12.00;99.90;;;;;;4965941;29;20027;-92
2023/01/02 07:15:04;;;;;;;21.35;19.80;;;12.10;99.90;;;;;;4966891;28;20039;-93
2023/01/02 07:17:31;;;;;;;22.40;20.85;;;12.00;99.90;;;;;;4949174;29;20024;-93
2023/01/02 07:19:57;;;;;;;121.47;23.23;;;12.10;99.90;;;;;;4947158;29;20062;-92
2023/01/02 07:22:24;;;;;;;22.02;20.83;;;12.10;99.90;;;;;;4932124;29;20499;-93
2023/01/02 07:24:50;;;;;;;21.77;20.63;;;12.10;99.90;;;;;;4964154;29;20043;-94
2023/01/02 07:27:16;;;;;;;20.58;19.48;;;12.00;99.90;;;;;;4965350;29;20031;-92
2023/01/02 07:29:43;;;;;;;21.25;19.80;;;12.10;99.90;;;;;;4932457;29;20035;-94
2023/01/02 07:32:09;;;;;;;21.35;19.67;;;12.10;99.90;;;;;;4961250;28;20042;-92
2023/01/02 07:34:35;;;;;;;21.77;20.45;;;12.00;99.90;;;;;;4927935;29;20389;-93
2023/01/02 07:37:01;;;;;;;104.80;24.20;;;12.00;99.90;;;;;;4926901;29;20096;-93
2023/01/02 07:39:27;;;;;;;43.00;20.35;;;12.00;99.90;;;;;;4929187;29;20047;-93
2023/01/02 07:41:53;;;;;;;21.17;19.13;;;12.10;99.90;;;;;;4943680;29;20046;-93
2023/01/02 07:44:19;;;;;;;21.73;20.42;;;12.10;99.90;;;;;;4941951;29;20047;-93
2023/01/02 07:46:45;;;;;;;21.35;19.92;;;12.10;99.90;;;;;;4925392;29;20031;-94
2023/01/02 07:49:11;;;;;;;21.38;20.17;;;12.20;99.90;;;;;;4940799;29;20035;-91
2023/01/02 07:51:37;;;;;;;20.83;19.60;;;12.30;99.90;;;;;;4940858;29;20418;-93
2023/01/02 07:54:03;;;;;;;21.60;20.20;;;12.20;99.90;;;;;;4925314;29;20035;-93
2023/01/02 07:56:30;;;;;;;41.03;21.10;;;12.20;99.90;;;;;;4924944;29;20035;-93
2023/01/02 07:58:56;;;;;;;21.30;19.63;;;12.20;99.90;;;;;;4921458;29;20050;-93
2023/01/02 08:01:22;;;;;;;295.58;32.33;;;12.10;99.90;;;;;;4937362;29;20036;-93
2023/01/02 08:03:48;;;;;;;21.08;19.73;;;12.10;99.90;;;;;;4938342;29;20036;-93
2023/01/02 08:06:15;;;;;;;21.45;20.35;;;12.10;99.90;;;;;;4936203;29;20047;-92
2023/01/02 08:08:41;;;;;;;20.75;19.33;;;12.10;99.90;;;;;;4937593;29;20032;-96
2023/01/02 08:11:09;;;;;;;21.30;19.85;;;12.10;99.90;;;;;;4922456;29;20043;-93
2023/01/02 08:13:35;;;;;;;20.33;19.08;;;12.10;99.90;;;;;;4923335;29;20028;-94
2023/01/02 08:16:12;;;;;;;21.23;19.73;;;12.00;99.90;;;;;;4922489;29;20040;-93
2023/01/02 08:18:38;;;;;;;21.25;19.83;;;12.00;99.90;;;;;;4937342;29;20039;-92
2023/01/02 08:21:04;;;;;;;21.13;19.73;;;12.00;99.90;;;;;;4918214;29;20056;-92
2023/01/02 08:23:31;;;;;;;20.88;19.70;;;12.00;99.90;;;;;;4925430;29;20044;-92
2023/01/02 08:25:58;;;;;;;20.98;19.63;;;12.00;99.90;;;;;;4928793;29;20389;-93
2023/01/02 08:28:24;;;;;;;20.27;18.88;;;12.00;99.90;;;;;;4944592;29;20043;-93
2023/01/02 08:30:50;;;;;;;47.92;20.33;;;12.00;99.90;;;;;;4928151;29;20046;-92
2023/01/02 08:33:16;;;;;;;20.52;19.30;;;12.00;99.90;;;;;;4927663;29;20047;-92
2023/01/02 08:35:42;;;;;;;21.70;19.73;;;12.00;99.90;;;;;;4922874;29;20039;-92
2023/01/02 08:38:09;;;;;;;20.13;18.92;;;12.00;99.90;;;;;;4928172;29;20055;-93
2023/01/02 08:40:35;;;;;;;20.73;19.33;;;11.90;99.90;;;;;;4928143;29;20044;-93
2023/01/02 08:43:01;;;;;;;20.52;19.40;;;11.80;99.90;;;;;;4944026;29;20076;-92
2023/01/02 08:45:27;;;;;;;19.60;18.50;;;11.80;99.90;;;;;;4942773;29;20036;-91
2023/01/02 08:47:53;;;;;;;20.95;19.10;;;11.80;99.90;;;;;;4904889;29;20409;-93
2023/01/02 08:50:20;;;;;;;26.92;18.75;;;11.80;99.90;;;;;;4938866;29;20043;-92
2023/01/02 08:52:46;;;;;;;20.13;18.85;;;11.80;99.90;;;;;;4939008;29;20028;-93
2023/01/02 08:55:12;;;;;;;19.85;18.63;;;11.70;99.90;;;;;;4938559;29;20039;-92
2023/01/02 08:57:39;;;;;;;19.33;18.23;;;11.80;99.90;;;;;;4937056;29;20036;-92
2023/01/02 09:00:05;;;;;;;20.23;18.80;;;11.80;99.90;;;;;;4936301;28;20051;-92
2023/01/02 09:02:32;;;;;;;20.17;19.13;;;11.70;99.90;;;;;;4936496;29;20039;-92
2023/01/02 09:04:58;;;;;;;19.75;18.45;;;11.80;99.90;;;;;;4920811;29;20061;-92
2023/01/02 09:07:24;;;;;;;19.50;18.50;;;11.80;99.90;;;;;;4936558;29;20027;-92
2023/01/02 09:09:50;;;;;;;19.50;18.20;;;11.80;99.90;;;;;;4936964;29;20039;-92
2023/01/02 09:12:16;;;;;;;20.17;18.75;;;11.70;99.90;;;;;;4936754;29;20032;-93
2023/01/02 09:14:43;;;;;;;20.92;19.63;;;11.70;99.90;;;;;;4937780;29;20058;-92
2023/01/02 09:17:09;;;;;;;20.33;18.88;;;11.70;99.90;;;;;;4936623;28;20039;-92
2023/01/02 09:19:35;;;;;;;19.92;18.50;;;11.60;99.90;;;;;;4918657;29;20047;-93
2023/01/02 09:22:01;;;;;;;20.23;18.90;;;11.60;99.90;;;;;;4917457;29;20039;-92
2023/01/02 09:24:27;;;;;;;20.88;19.42;;;11.60;99.90;;;;;;4919108;29;20032;-94
2023/01/02 09:26:53;;;;;;;21.45;20.17;;;11.60;99.90;;;;;;4921047;29;20051;-91
2023/01/02 09:29:19;;;;;;;21.77;20.27;;;11.60;99.90;;;;;;4922904;29;20040;-93
2023/01/02 09:31:46;;;;;;;20.80;19.50;;;11.60;99.90;;;;;;4936924;29;20043;-93
2023/01/02 09:34:12;;;;;;;20.52;19.02;;;11.60;99.90;;;;;;4936641;29;20044;-93
2023/01/02 09:36:38;;;;;;;22.52;20.98;;;11.70;99.90;;;;;;4939833;29;20039;-92
2023/01/02 09:39:04;;;;;;;22.77;21.25;;;11.70;99.90;;;;;;4939151;29;20047;-93
2023/01/02 09:41:41;;;;;;;20.77;19.38;;;11.70;99.90;;;;;;4924210;29;20034;-92
2023/01/02 09:44:14;;;;;;;21.33;20.08;;;11.70;99.90;;;;;;4925549;29;20023;-92
2023/01/02 09:47:04;;;;;;;23.63;21.65;;;11.70;99.90;;;;;;4940560;29;20036;-92
2023/01/02 09:49:42;;;;;;;21.65;20.05;;;11.70;99.90;;;;;;4943705;29;20231;-92
2023/01/02 09:52:12;;;;;;;24.38;22.55;;;11.70;99.90;;;;;;4926425;29;20039;-93
2023/01/02 09:54:38;;;;;;;24.40;22.83;;;11.80;99.90;;;;;;4923571;29;20039;-92
2023/01/02 09:57:04;;;;;;;25.95;23.98;;;11.90;99.90;;;;;;4939946;29;20035;-92
2023/01/02 10:00:09;;;;;;;25.25;23.83;;;11.90;99.90;;;;;;4948162;29;20055;-93
2023/01/02 10:02:46;;;;;;;24.13;22.63;;;11.90;99.90;;;;;;4941541;29;20039;-92
2023/01/02 10:05:20;;;;;;;21.77;19.73;;;12.00;99.90;;;;;;4923481;29;20027;-92
2023/01/02 10:08:24;;;;;;;23.15;20.80;;;12.00;99.90;;;;;;4940758;29;20050;-92
2023/01/02 10:11:22;;;;;;;22.13;20.65;;;12.10;99.90;;;;;;4939014;29;20028;-92
2023/01/02 10:14:03;;;;;;;19.08;17.77;;;12.10;99.90;;;;;;4843426;29;20407;-92
2023/01/02 10:16:31;;;;;;;22.65;21.10;;;12.20;99.90;;;;;;4858237;29;20041;-94
2023/01/02 10:18:59;;;;;;;21.30;19.85;;;12.20;99.90;;;;;;4843527;29;20388;-92
2023/01/02 10:21:28;;;;;;;19.23;17.92;;;12.40;99.90;;;;;;4859657;29;20510;-93
2023/01/02 10:24:16;;;;;;;22.70;21.02;;;12.50;99.90;;;;;;4861987;29;20494;-93
2023/01/02 10:26:45;;;;;;;23.08;21.58;;;12.70;99.90;;;;;;4861822;29;20029;-91
2023/01/02 10:29:36;;;;;;;24.63;22.60;;;12.80;99.90;;;;;;4877184;29;20048;-92
2023/01/02 10:32:10;;;;;;;20.90;19.17;;;12.90;99.90;;;;;;4876833;29;20045;-92
2023/01/02 10:34:40;;;;;;;18.45;17.05;;;13.10;99.90;;;;;;4861750;29;20436;-91
2023/01/02 10:37:13;;;;;;;18.42;17.15;;;13.20;99.90;;;;;;4866579;29;20559;-91
2023/01/02 10:39:40;;;;;;;17.08;15.90;;;13.20;99.90;;;;;;4849504;29;20060;-92
2023/01/02 10:42:07;;;;;;;19.63;17.65;;;13.20;99.90;;;;;;4865044;29;20036;-93
2023/01/02 10:44:34;;;;;;;16.73;15.60;;;13.20;99.90;;;;;;4864566;29;20041;-90
2023/01/02 10:47:26;;;;;;;17.52;15.93;;;13.20;99.90;;;;;;4864399;29;20045;-91
2023/01/02 10:49:52;;;;;;;16.00;14.80;;;13.20;99.90;;;;;;4889223;29;20074;-91
2023/01/02 10:52:41;;;;;;;16.10;15.10;;;13.20;99.90;;;;;;4941836;29;20045;-91
2023/01/02 10:55:08;;;;;;;19.73;18.15;;;13.30;99.90;;;;;;4957606;29;20051;-91
2023/01/02 10:57:42;;;;;;;18.38;17.15;;;13.40;99.90;;;;;;4956875;29;20469;-91
2023/01/02 11:00:17;;;;;;;18.40;17.23;;;13.50;99.90;;;;;;4939900;28;20408;-89
2023/01/02 11:02:48;;;;;;;16.30;15.38;;;13.60;99.90;;;;;;4957749;29;20487;-91
2023/01/02 11:05:19;;;;;;;17.50;15.90;;;13.70;99.90;;;;;;4940414;29;20042;-91
2023/01/02 11:07:47;;;;;;;16.70;15.45;;;13.60;99.90;;;;;;4956507;29;20034;-91
2023/01/02 11:10:22;;;;;;;19.88;18.08;;;13.60;99.90;;;;;;4939889;29;20040;-91
2023/01/02 11:12:48;;;;;;;17.73;16.38;;;13.70;99.90;;;;;;4957179;29;20047;-91
2023/01/02 11:15:21;;;;;;;18.63;17.23;;;13.70;99.90;;;;;;4939398;28;20389;-91
2023/01/02 11:17:48;;;;;;;16.35;15.05;;;13.70;99.90;;;;;;4940411;29;20108;-91
2023/01/02 11:20:26;;;;;;;16.67;14.90;;;13.70;99.90;;;;;;4940180;29;20039;-91
2023/01/02 11:22:54;;;;;;;18.95;17.30;;;13.70;99.90;;;;;;4940156;29;20035;-90
2023/01/02 11:25:22;;;;;;;20.42;18.73;;;13.80;99.90;;;;;;4923653;29;20480;-91
2023/01/02 11:27:48;;;;;;;27.33;24.92;;;13.90;99.90;;;;;;4921031;29;20024;-91
2023/01/02 11:30:34;;;;;;;22.20;19.90;;;14.00;99.90;;;;;;4904789;28;20035;-91
2023/01/02 11:33:23;;;;;;;23.08;21.00;;;14.00;99.90;;;;;;4921026;29;20058;-91
2023/01/02 11:35:51;;;;;;;21.45;20.10;;;14.10;99.90;;;;;;4909024;29;20032;-91
2023/01/02 11:38:21;;;;;;;19.10;17.52;;;14.10;99.90;;;;;;4889968;29;20047;-91
2023/01/02 11:40:59;;;;;;;20.27;18.88;;;14.20;99.90;;;;;;4905126;29;20036;-90
2023/01/02 11:43:47;;;;;;;18.65;17.40;;;14.20;99.90;;;;;;4920301;29;20027;-91
2023/01/02 11:46:35;;;;;;;16.02;14.48;;;14.30;99.90;;;;;;4908295;29;20040;-91
2023/01/02 11:49:27;;;;;;;17.00;15.52;;;14.50;99.90;;;;;;4903867;29;20405;-92
2023/01/02 11:51:58;;;;;;;15.77;14.57;;;14.70;99.90;;;;;;4929108;29;20087;-92
2023/01/02 11:54:37;;;;;;;18.05;16.55;;;14.80;99.90;;;;;;4921254;29;20023;-90
2023/01/02 11:57:03;;;;;;;17.48;16.10;;;14.90;99.90;;;;;;4905029;29;20032;-92
2023/01/02 11:59:36;;;;;;;15.75;14.68;;;14.90;99.90;;;;;;4904580;29;20498;-90
2023/01/02 12:02:51;;;;;;;17.20;15.52;;;15.00;99.90;;;;;;4904435;29;20032;-90
2023/01/02 12:05:42;;;;;;;15.43;14.02;;;15.00;99.90;;;;;;4904026;29;20053;-91
2023/01/02 12:08:30;;;;;;;16.00;14.75;;;15.00;99.90;;;;;;4909721;29;20040;-90
2023/01/02 12:11:05;;;;;;;16.60;14.20;;;14.90;99.90;;;;;;4889491;29;20043;-90
2023/01/02 12:13:49;;;;;;;17.13;15.65;;;15.00;99.90;;;;;;4935461;29;20541;-91
2023/01/02 12:16:36;;;;;;;14.38;13.20;;;15.00;99.90;;;;;;4936723;28;20606;-90
2023/01/02 12:19:14;;;;;;;15.18;14.10;;;15.00;99.90;;;;;;4920262;29;20054;-90
2023/01/02 12:21:49;;;;;;;14.20;13.00;;;15.10;99.90;;;;;;4955549;28;20039;-90
2023/01/02 12:24:15;;;;;;;14.80;13.50;;;15.00;99.90;;;;;;4956029;29;20027;-90
2023/01/02 12:27:01;;;;;;;14.80;13.27;;;15.10;99.90;;;;;;4955606;29;20394;-90
2023/01/02 12:29:45;;;;;;;13.90;12.50;;;15.30;99.90;;;;;;4939141;29;20507;-90
2023/01/02 12:32:24;;;;;;;16.27;14.93;;;15.50;99.90;;;;;;4938871;29;20068;-90
2023/01/02 12:35:17;;;;;;;13.57;12.48;;;15.40;99.90;;;;;;4939575;29;20034;-89
2023/01/02 12:37:59;;;;;;;14.68;13.50;;;15.40;99.90;;;;;;4920411;29;20481;-90
2023/01/02 12:40:37;;;;;;;15.43;14.15;;;15.50;99.90;;;;;;4938230;29;20035;-91
2023/01/02 12:43:19;;;;;;;15.68;14.35;;;15.50;99.90;;;;;;4938476;29;20043;-90
2023/01/02 12:45:54;;;;;;;14.85;13.38;;;15.70;99.90;;;;;;4938155;29;20039;-89
2023/01/02 12:48:52;;;;;;;15.68;14.20;;;15.70;99.90;;;;;;4938027;29;20488;-90